»·PEaware :: N973SE L88-KBFL

N973SE :: L88-KBFL

FLIGHT INFORMATION

Flight Status: Arrived
Operator: Privately registered:
United States
More flights under this callsign
Pilot: Stig E. (4778)
Aircraft: Unknown
(DA62)
More flights by this aircraft type
Origin: L88 New Cuyama
United States
Destination: KBFL Meadows
United States
More flights between these airports :: More routes between these airports
Route: GMN FASTO2
File this flight plan on PilotEdge
Remarks:
Altitude:
(Current/Filed)
9,500ft
Speed:
(Current/Filed)
150kts
Departed: 25-Jun-18 11:40 PM
Arrived: 26-Jun-18 12:16 AM
Distance/Time
Traveled:
43nm/0:36
Distance/Time
To Go:
Arrived

Flight Plot

Page will automatically refresh every two minutes.

Flight plan parsing failed; only flown route is shown


Map Options




Map Legend


Flown Route
Filed Route
Departure Airport
Arrival Airport
Navaid (VOR, NDB)
Fix

Horizontal Profiles

Position Reports

Time Latitude Longitude Heading Altitude Ground
Speed
25-Jun-18 22:46 34.942344 -119.690447 297 2157ft 0kts
25-Jun-18 22:47 34.942344 -119.690447 297 2157ft 0kts
25-Jun-18 22:48 34.942344 -119.690447 297 2157ft 0kts
25-Jun-18 22:49 34.942344 -119.690447 297 2157ft 0kts
25-Jun-18 22:50 34.942344 -119.690447 297 2157ft 0kts
25-Jun-18 22:51 34.942344 -119.690447 297 2157ft 0kts
25-Jun-18 22:52 34.942344 -119.690447 297 2157ft 0kts
25-Jun-18 22:53 34.942344 -119.690447 297 2157ft 0kts
25-Jun-18 22:54 34.942344 -119.690447 297 2157ft 0kts
25-Jun-18 22:55 34.942344 -119.690447 297 2157ft 0kts
25-Jun-18 22:56 34.942344 -119.690447 297 2157ft 0kts
25-Jun-18 22:57 34.942344 -119.690447 297 2157ft 0kts
25-Jun-18 22:58 34.942344 -119.690447 297 2157ft 0kts
25-Jun-18 22:59 34.942344 -119.690447 297 2157ft 0kts
25-Jun-18 23:00 34.942344 -119.690447 297 2157ft 0kts
25-Jun-18 23:01 34.942344 -119.690447 297 2157ft 0kts
25-Jun-18 23:02 34.942344 -119.690447 297 2157ft 0kts
25-Jun-18 23:03 34.942344 -119.690447 297 2157ft 0kts
25-Jun-18 23:04 34.942344 -119.690447 297 2157ft 0kts
25-Jun-18 23:05 34.942344 -119.690447 297 2157ft 0kts
25-Jun-18 23:06 34.942344 -119.690447 297 2157ft 0kts
25-Jun-18 23:07 34.942344 -119.690447 297 2157ft 0kts
25-Jun-18 23:08 34.942344 -119.690447 297 2157ft 0kts
25-Jun-18 23:09 34.942344 -119.690447 297 2157ft 0kts
25-Jun-18 23:10 34.942344 -119.690447 297 2157ft 0kts
25-Jun-18 23:11 34.942344 -119.690447 297 2157ft 0kts
25-Jun-18 23:12 34.942344 -119.690447 297 2157ft 0kts
25-Jun-18 23:13 34.942344 -119.690447 297 2157ft 0kts
25-Jun-18 23:14 34.942344 -119.690447 297 2157ft 0kts
25-Jun-18 23:15 34.942344 -119.690447 297 2157ft 0kts
25-Jun-18 23:16 34.942344 -119.690447 297 2157ft 0kts
25-Jun-18 23:17 34.942344 -119.690447 297 2157ft 0kts
25-Jun-18 23:18 34.942344 -119.690447 297 2157ft 0kts
25-Jun-18 23:19 34.942344 -119.690447 297 2157ft 0kts
25-Jun-18 23:20 34.942344 -119.690447 297 2157ft 0kts
25-Jun-18 23:21 34.942344 -119.690447 297 2157ft 0kts
25-Jun-18 23:22 34.942344 -119.690447 297 2157ft 0kts
25-Jun-18 23:23 34.942344 -119.690447 297 2157ft 0kts
25-Jun-18 23:24 34.942344 -119.690447 297 2157ft 0kts
25-Jun-18 23:25 34.942344 -119.690447 297 2157ft 0kts
25-Jun-18 23:26 34.942344 -119.690447 297 2157ft 0kts
25-Jun-18 23:27 34.942344 -119.690447 297 2157ft 0kts
25-Jun-18 23:28 34.942344 -119.690447 297 2157ft 0kts
25-Jun-18 23:29 34.942344 -119.690447 297 2157ft 0kts
25-Jun-18 23:30 34.942344 -119.690447 297 2157ft 0kts
25-Jun-18 23:31 34.942344 -119.690447 297 2157ft 0kts
25-Jun-18 23:32 34.942344 -119.690447 297 2157ft 0kts
25-Jun-18 23:33 34.942344 -119.690447 297 2157ft 0kts
25-Jun-18 23:34 34.942344 -119.690447 297 2157ft 0kts
25-Jun-18 23:35 34.942344 -119.690447 297 2157ft 0kts
25-Jun-18 23:36 34.942344 -119.690447 297 2157ft 0kts
25-Jun-18 23:37 34.942344 -119.690447 297 2157ft 0kts
25-Jun-18 23:38 34.942344 -119.690447 297 2157ft 0kts
25-Jun-18 23:39 34.942530 -119.691355 215 2152ft 6kts
25-Jun-18 23:40 34.936499 -119.675820 113 2464ft 98kts
25-Jun-18 23:41 34.927658 -119.644360 111 3796ft 100kts
25-Jun-18 23:42 34.921966 -119.610966 100 5091ft 103kts
25-Jun-18 23:43 34.917118 -119.577579 97 6331ft 101kts
25-Jun-18 23:44 34.912041 -119.543289 98 7507ft 105kts
25-Jun-18 23:45 34.906693 -119.508037 98 8672ft 108kts
25-Jun-18 23:46 34.900971 -119.470847 99 9549ft 134kts
25-Jun-18 23:47 34.892890 -119.418810 99 9533ft 167kts
25-Jun-18 23:48 34.884022 -119.361956 99 9520ft 173kts
25-Jun-18 23:49 34.874902 -119.305027 100 9508ft 174kts
25-Jun-18 23:50 34.865682 -119.247137 100 9505ft 174kts
25-Jun-18 23:51 34.856499 -119.189102 100 9509ft 174kts
25-Jun-18 23:52 34.847343 -119.131252 100 9514ft 174kts
25-Jun-18 23:53 34.838174 -119.073454 100 9518ft 174kts
25-Jun-18 23:54 34.828969 -119.015584 100 9535ft 173kts
25-Jun-18 23:55 34.819927 -118.958888 100 9582ft 172kts
25-Jun-18 23:56 34.810795 -118.901783 100 9628ft 171kts
25-Jun-18 23:57 34.818913 -118.853097 8 9672ft 169kts
25-Jun-18 23:58 34.865765 -118.859740 355 9661ft 171kts
25-Jun-18 23:59 34.912081 -118.861276 358 9505ft 165kts
26-Jun-18 00:00 34.958272 -118.861520 358 8971ft 162kts
26-Jun-18 00:01 35.001508 -118.862632 355 8961ft 163kts
26-Jun-18 00:02 35.047844 -118.862891 359 8645ft 168kts
26-Jun-18 00:03 35.095121 -118.862687 1 7918ft 167kts
26-Jun-18 00:04 35.141287 -118.862554 1 7104ft 166kts
26-Jun-18 00:05 35.187449 -118.862552 1 6264ft 165kts
26-Jun-18 00:06 35.232840 -118.862610 0 5258ft 162kts
26-Jun-18 00:07 35.273792 -118.865720 326 4743ft 127kts
26-Jun-18 00:08 35.297527 -118.892314 318 4226ft 104kts
26-Jun-18 00:09 35.317820 -118.916458 318 3673ft 100kts
26-Jun-18 00:10 35.337568 -118.940155 317 3127ft 99kts
26-Jun-18 00:11 35.357015 -118.963550 317 2585ft 98kts
26-Jun-18 00:12 35.376174 -118.986622 317 2053ft 96kts
26-Jun-18 00:13 35.395120 -119.009454 317 1532ft 95kts
26-Jun-18 00:14 35.413903 -119.032108 317 1022ft 94kts
26-Jun-18 00:15 35.432176 -119.054192 317 510ft 82kts
26-Jun-18 00:16 35.440254 -119.061686 130 497ft 18kts
26-Jun-18 00:17 35.434825 -119.055209 140 497ft 32kts
26-Jun-18 00:18 35.434821 -119.053590 335 497ft 0kts
26-Jun-18 00:19 35.434821 -119.053590 335 497ft 0kts
26-Jun-18 00:20 35.434821 -119.053590 335 497ft 0kts
26-Jun-18 00:21 35.434821 -119.053590 335 497ft 0kts
26-Jun-18 00:22 35.434821 -119.053590 335 497ft 0kts
26-Jun-18 00:23 35.434821 -119.053590 335 497ft 0kts
26-Jun-18 00:24 35.434821 -119.053590 335 497ft 0kts
26-Jun-18 00:25 35.434821 -119.053590 335 497ft 0kts
26-Jun-18 00:26 35.434821 -119.053590 335 497ft 0kts

Navigation Log

Ident Type
Flight plan parsing failed, navigation log unavailable